Time;durP1;ratioP1;P1;durP2;ratioP2;P2;SDS_P1;SDS_P2;PMS_P1;PMS_P2;Temp;Humidity;BMP_temperature;BMP_pressure;BME280_temperature;BME280_humidity;BME280_pressure;Samples;Min_cycle;Max_cycle;Signal;HPM_P1;HPM_P2
2022/01/14 00:02:13;;;;;;;50.80;45.80;;;;;;;1.65;87.62;99013.40;109671;1273;22506;-74
2022/01/14 00:04:46;;;;;;;48.60;43.70;;;;;;;1.63;87.52;99009.03;109670;1274;22552;-75
2022/01/14 00:07:14;;;;;;;47.00;42.30;;;;;;;1.61;87.63;99005.62;109690;1272;22587;-74
2022/01/14 00:09:47;;;;;;;50.70;45.20;;;;;;;1.59;87.70;99004.73;109581;1274;22443;-73
2022/01/14 00:12:25;;;;;;;51.30;46.00;;;;;;;1.62;87.52;98993.71;109681;1272;22536;-75
2022/01/14 00:15:00;;;;;;;51.10;45.60;;;;;;;1.60;87.48;98992.83;109674;1273;22501;-78
2022/01/14 00:18:03;;;;;;;52.50;47.00;;;;;;;1.59;87.56;98993.13;109671;1274;22460;-76
2022/01/14 00:20:36;;;;;;;48.10;43.40;;;;;;;1.61;87.61;98989.31;109606;1273;22457;-76
2022/01/14 00:23:09;;;;;;;54.20;48.90;;;;;;;1.62;87.46;98983.05;109644;1274;22450;-74
2022/01/14 00:34:01;;;;;;;50.90;45.60;;;;;;;1.60;87.38;98982.80;109696;1273;22474;-71
2022/01/14 00:36:29;;;;;;;49.40;44.30;;;;;;;1.57;87.50;98977.71;109662;1273;22349;-72
2022/01/14 00:38:57;;;;;;;48.80;44.20;;;;;;;1.56;87.51;98965.55;109676;1272;23126;-75
2022/01/14 00:41:26;;;;;;;48.60;43.60;;;;;;;1.56;87.34;98969.73;109648;1274;22480;-81
2022/01/14 00:44:01;;;;;;;51.30;46.20;;;;;;;1.55;87.39;98981.70;109657;1273;22526;-73
2022/01/14 00:46:35;;;;;;;51.20;45.80;;;;;;;1.53;87.61;98995.15;109653;1274;22506;-74
2022/01/14 00:49:09;;;;;;;49.30;44.50;;;;;;;1.51;87.44;98995.90;109676;1273;23199;-74
2022/01/14 00:51:38;;;;;;;45.70;41.10;;;;;;;1.53;87.46;99002.63;109589;1274;22357;-74
2022/01/14 00:54:17;;;;;;;49.10;44.30;;;;;;;1.53;87.68;99005.98;109658;1273;22540;-72
2022/01/14 00:59:37;;;;;;;46.20;41.70;;;;;;;1.48;87.62;99015.86;109679;1273;22365;-73
2022/01/14 01:02:10;;;;;;;42.10;38.10;;;;;;;1.48;87.68;99007.52;109678;1272;22485;-73
2022/01/14 01:04:44;;;;;;;47.60;42.90;;;;;;;1.50;87.64;98988.63;109581;1275;22411;-73
2022/01/14 01:07:14;;;;;;;49.50;44.50;;;;;;;1.52;87.62;98986.98;109677;1273;22427;-73
2022/01/14 01:09:48;;;;;;;47.40;42.30;;;;;;;1.50;87.63;98984.18;109669;1274;22428;-73
2022/01/14 01:12:33;;;;;;;45.20;40.40;;;;;;;1.51;87.65;98979.31;109678;1274;23169;-74
2022/01/14 01:15:05;;;;;;;47.30;42.60;;;;;;;1.52;87.40;98976.96;109691;1274;22275;-76
2022/01/14 01:17:34;;;;;;;46.80;42.10;;;;;;;1.52;88.02;98975.14;109560;1274;22706;-75
2022/01/14 01:20:18;;;;;;;45.90;40.90;;;;;;;1.51;87.83;98972.89;109671;1273;23108;-75
2022/01/14 01:22:50;;;;;;;46.10;41.20;;;;;;;1.52;87.67;98971.21;109584;1275;22414;-75
2022/01/14 01:25:29;;;;;;;45.50;40.90;;;;;;;1.53;87.62;98970.55;109595;1274;22472;-77
2022/01/14 01:27:57;;;;;;;50.00;45.20;;;;;;;1.53;87.75;98977.83;109683;1274;23732;-73
2022/01/14 01:32:59;;;;;;;45.70;41.20;;;;;;;1.48;87.76;98980.06;109663;1274;23780;-75
2022/01/14 01:35:29;;;;;;;46.10;41.40;;;;;;;1.49;87.70;98982.52;109677;1273;22433;-75
2022/01/14 01:37:57;;;;;;;45.80;41.20;;;;;;;1.50;87.75;98978.95;109682;1272;22480;-72
2022/01/14 01:40:27;;;;;;;50.10;45.30;;;;;;;1.50;87.62;98983.04;109700;1274;22599;-72
2022/01/14 01:42:57;;;;;;;47.70;42.50;;;;;;;1.46;87.63;98983.72;109680;1274;23089;-73
2022/01/14 01:45:27;;;;;;;47.40;42.80;;;;;;;1.46;87.89;98993.10;109659;1273;22355;-73
2022/01/14 01:47:55;;;;;;;47.10;42.50;;;;;;;1.48;87.80;98995.47;109671;1274;22498;-72
2022/01/14 01:50:27;;;;;;;46.30;41.80;;;;;;;1.48;87.89;99005.03;109673;1273;22395;-73
2022/01/14 01:52:56;;;;;;;45.70;41.20;;;;;;;1.48;87.94;99005.23;109677;1273;22489;-73
2022/01/14 01:55:25;;;;;;;46.20;41.70;;;;;;;1.46;87.84;98996.66;109690;1274;22406;-74
2022/01/14 01:57:54;;;;;;;44.40;40.10;;;;;;;1.47;88.02;99005.03;109686;1273;22506;-73
2022/01/14 02:00:25;;;;;;;45.80;41.40;;;;;;;1.49;87.95;99000.86;109670;1271;22426;-73
2022/01/14 02:02:56;;;;;;;49.00;44.40;;;;;;;1.50;88.02;98982.34;109569;1274;138615;-76
2022/01/14 02:05:25;;;;;;;45.90;41.40;;;;;;;1.51;87.91;98972.09;109603;1274;22542;-74
2022/01/14 02:07:54;;;;;;;45.50;41.20;;;;;;;1.52;87.90;98970.35;109691;1273;22493;-76
2022/01/14 02:10:25;;;;;;;44.50;40.20;;;;;;;1.52;87.97;98958.83;109682;1274;23497;-73
2022/01/14 02:12:54;;;;;;;48.80;44.20;;;;;;;1.52;87.94;98948.69;109661;1273;22444;-73
2022/01/14 02:15:46;;;;;;;45.30;40.80;;;;;;;1.52;87.94;98952.66;109666;1273;22405;-72
2022/01/14 02:23:40;;;;;;;45.80;41.30;;;;;;;1.51;87.98;98943.23;109682;1274;22490;-72
2022/01/14 02:26:09;;;;;;;45.00;40.60;;;;;;;1.51;87.89;98944.13;109684;1272;22527;-73
2022/01/14 02:28:37;;;;;;;43.20;39.00;;;;;;;1.46;87.96;98943.55;109287;1273;516620;-72
2022/01/14 02:31:05;;;;;;;42.60;38.70;;;;;;;1.43;88.03;98950.71;109669;1274;22415;-73
2022/01/14 02:33:34;;;;;;;45.10;40.80;;;;;;;1.43;88.13;98944.55;109660;1274;22439;-72
2022/01/14 02:36:07;;;;;;;44.70;40.70;;;;;;;1.45;88.19;98934.90;109583;1274;22530;-72
2022/01/14 02:38:36;;;;;;;44.00;39.50;;;;;;;1.45;87.98;98942.70;109688;1274;23142;-74
2022/01/14 02:41:04;;;;;;;41.90;38.10;;;;;;;1.42;88.15;98940.05;109666;1274;23224;-72
2022/01/14 02:43:34;;;;;;;40.80;37.00;;;;;;;1.42;88.23;98936.22;109687;1274;22572;-75
2022/01/14 02:46:05;;;;;;;40.70;37.00;;;;;;;1.40;88.50;98949.70;109679;1273;22505;-74
2022/01/14 02:48:34;;;;;;;41.80;37.90;;;;;;;1.40;88.19;98944.28;109671;1273;22553;-74
2022/01/14 02:51:11;;;;;;;38.50;34.90;;;;;;;1.39;88.27;98935.88;109675;1273;23423;-73
2022/01/14 02:56:15;;;;;;;39.70;36.20;;;;;;;1.41;88.11;98933.45;109688;1274;22538;-73
2022/01/14 02:58:43;;;;;;;43.30;39.20;;;;;;;1.42;88.05;98931.35;109628;1274;23166;-73
2022/01/14 03:01:18;;;;;;;39.30;35.70;;;;;;;1.41;88.11;98927.84;109692;1273;22532;-74
2022/01/14 03:03:47;;;;;;;;;;;;;;;1.40;88.04;98932.02;109719;1272;22439;-74
2022/01/14 03:06:16;;;;;;;37.50;34.10;;;;;;;1.39;88.12;98927.45;109662;1273;22237;-73
2022/01/14 03:08:46;;;;;;;42.40;38.30;;;;;;;1.40;87.98;98924.98;109657;1274;22446;-73
2022/01/14 03:11:28;;;;;;;41.90;38.10;;;;;;;1.39;88.05;98908.99;109585;1274;23031;-72
2022/01/14 03:13:58;;;;;;;38.60;35.00;;;;;;;1.38;88.10;98910.38;109683;1273;22424;-73
2022/01/14 03:16:29;;;;;;;39.20;35.70;;;;;;;1.38;88.01;98903.92;109646;1273;22400;-72
2022/01/14 03:19:06;;;;;;;41.30;37.40;;;;;;;1.41;87.82;98913.27;109684;1273;22401;-72
2022/01/14 03:21:40;;;;;;;44.00;40.00;;;;;;;1.42;87.76;98913.45;109684;1272;23248;-73
2022/01/14 03:25:34;;;;;;;43.80;39.50;;;;;;;1.42;87.77;98905.42;109674;1274;22236;-73
2022/01/14 03:27:08;;;;;;;41.20;37.50;;;;;;;1.42;87.72;98909.98;109695;1273;22552;-71
2022/01/14 03:29:38;;;;;;;42.10;38.00;;;;;;;1.41;87.83;98908.80;109673;1272;23148;-73
2022/01/14 03:32:07;;;;;;;43.90;40.00;;;;;;;1.42;87.69;98907.20;109677;1273;22493;-73
2022/01/14 03:34:37;;;;;;;44.60;40.30;;;;;;;1.42;87.63;98898.84;109679;1273;22491;-75
2022/01/14 03:37:05;;;;;;;41.30;37.30;;;;;;;1.40;87.67;98889.95;109687;1274;22557;-72
2022/01/14 03:39:33;;;;;;;41.10;37.10;;;;;;;1.40;87.60;98875.48;109673;1274;22566;-74
2022/01/14 03:42:05;;;;;;;45.00;40.60;;;;;;;1.44;87.60;98875.40;109667;1274;22353;-72
2022/01/14 03:44:33;;;;;;;43.30;39.40;;;;;;;1.44;87.46;98875.33;109685;1274;22432;-73
2022/01/14 03:47:02;;;;;;;40.20;36.60;;;;;;;1.43;87.57;98869.61;109690;1273;23158;-74
2022/01/14 03:49:30;;;;;;;40.50;36.60;;;;;;;1.43;87.36;98873.83;109651;1274;22424;-74
2022/01/14 03:51:59;;;;;;;37.40;33.90;;;;;;;1.45;87.36;98869.89;109696;1273;22663;-74
2022/01/14 03:54:29;;;;;;;44.30;40.30;;;;;;;1.47;87.33;98866.20;109592;1274;23500;-75
2022/01/14 03:56:57;;;;;;;40.30;36.40;;;;;;;1.48;87.42;98868.97;109668;1273;23215;-73
2022/01/14 03:59:25;;;;;;;38.60;34.90;;;;;;;1.46;87.31;98864.52;109627;1274;22934;-74
2022/01/14 04:01:54;;;;;;;39.10;35.40;;;;;;;1.46;87.23;98861.73;109662;1274;22446;-73
2022/01/14 04:04:22;;;;;;;40.60;36.90;;;;;;;1.47;87.28;98852.88;109689;1274;22427;-73
2022/01/14 04:06:50;;;;;;;40.80;37.20;;;;;;;1.49;87.13;98854.44;109688;1273;22220;-73
2022/01/14 04:09:18;;;;;;;38.50;34.90;;;;;;;1.47;87.24;98853.69;109679;1274;23150;-74
2022/01/14 04:11:46;;;;;;;40.20;36.50;;;;;;;1.44;87.19;98848.93;109679;1273;22559;-73
2022/01/14 04:15:36;;;;;;;40.80;37.00;;;;;;;1.44;87.16;98844.44;109688;1273;23071;-72
2022/01/14 04:17:06;;;;;;;41.70;37.90;;;;;;;1.45;87.41;98844.70;109680;1274;22419;-72
2022/01/14 04:19:34;;;;;;;41.50;37.70;;;;;;;1.43;87.28;98840.52;109657;1273;22434;-71
2022/01/14 04:22:03;;;;;;;40.70;37.00;;;;;;;1.40;87.18;98828.33;109671;1274;22586;-70
2022/01/14 04:24:31;;;;;;;43.50;39.50;;;;;;;1.37;87.33;98835.02;109655;1274;22532;-72
2022/01/14 04:26:59;;;;;;;40.20;36.60;;;;;;;1.36;87.29;98831.14;109682;1274;22389;-73
2022/01/14 04:29:27;;;;;;;42.60;38.80;;;;;;;1.35;87.37;98846.26;109689;1273;23079;-73
2022/01/14 04:31:55;;;;;;;44.00;39.70;;;;;;;1.34;87.21;98841.77;109666;1274;22453;-73
2022/01/14 04:34:24;;;;;;;44.60;40.20;;;;;;;1.31;87.20;98838.74;109676;1274;22388;-69
2022/01/14 04:36:52;;;;;;;40.30;36.50;;;;;;;1.30;87.30;98837.39;109677;1272;22428;-70
2022/01/14 04:39:20;;;;;;;47.30;42.90;;;;;;;1.32;87.34;98836.23;109669;1272;22394;-71
2022/01/14 04:41:48;;;;;;;48.30;43.70;;;;;;;1.29;87.38;98837.36;109677;1274;22606;-70
2022/01/14 04:44:16;;;;;;;45.60;41.30;;;;;;;1.26;87.50;98821.41;109698;1274;22325;-72
2022/01/14 04:49:12;;;;;;;47.30;42.80;;;;;;;1.23;87.48;98826.90;109672;1273;22463;-71
2022/01/14 04:51:40;;;;;;;43.10;39.00;;;;;;;1.23;87.51;98808.80;109658;1273;22445;-69
2022/01/14 04:54:09;;;;;;;43.00;38.90;;;;;;;1.21;87.58;98814.88;109673;1273;22848;-71
2022/01/14 04:56:37;;;;;;;42.10;38.00;;;;;;;1.19;87.56;98798.88;109662;1271;22524;-68
2022/01/14 04:59:05;;;;;;;47.70;43.30;;;;;;;1.20;87.75;98804.55;109671;1273;22423;-70
2022/01/14 05:01:33;;;;;;;46.90;42.50;;;;;;;1.19;87.64;98809.30;109663;1273;22503;-70
2022/01/14 05:04:01;;;;;;;46.80;42.20;;;;;;;1.16;87.69;98804.48;109670;1274;22485;-70
2022/01/14 05:06:30;;;;;;;50.20;45.40;;;;;;;1.18;87.62;98799.91;109645;1274;23161;-70
2022/01/14 05:08:58;;;;;;;49.00;44.20;;;;;;;1.18;87.57;98809.70;109697;1273;22474;-71
2022/01/14 05:11:38;;;;;;;47.00;42.40;;;;;;;1.18;87.62;98803.59;109664;1274;22484;-72
2022/01/14 05:14:06;;;;;;;46.00;41.60;;;;;;;1.17;87.74;98801.43;109671;1273;22539;-71
2022/01/14 05:16:34;;;;;;;45.40;40.80;;;;;;;1.16;87.69;98799.23;109667;1274;23104;-71
2022/01/14 05:19:02;;;;;;;46.70;42.20;;;;;;;1.18;87.56;98792.39;109662;1274;22393;-71
2022/01/14 05:21:30;;;;;;;48.10;43.70;;;;;;;1.18;87.68;98790.23;109575;1274;22746;-72
2022/01/14 05:23:58;;;;;;;48.10;43.50;;;;;;;1.17;87.64;98790.81;109683;1272;22519;-71
2022/01/14 05:26:26;;;;;;;49.20;44.50;;;;;;;1.16;87.87;98796.66;109649;1273;23399;-69
2022/01/14 05:28:55;;;;;;;47.50;43.00;;;;;;;1.14;87.99;98800.42;109670;1274;22416;-72
2022/01/14 05:31:44;;;;;;;48.50;43.80;;;;;;;1.13;87.78;98792.13;109671;1273;22605;-71
2022/01/14 05:34:12;;;;;;;46.80;42.40;;;;;;;1.12;88.15;98796.27;109647;1274;22371;-71
2022/01/14 05:36:40;;;;;;;45.10;40.70;;;;;;;1.10;88.08;98793.71;109537;1274;22467;-71
2022/01/14 05:39:10;;;;;;;43.80;39.50;;;;;;;1.10;87.96;98795.15;109666;1274;22540;-74
2022/01/14 05:41:38;;;;;;;44.70;40.70;;;;;;;1.10;88.16;98793.71;109651;1274;22616;-70
2022/01/14 05:44:06;;;;;;;48.90;44.30;;;;;;;1.12;87.91;98791.70;109665;1273;22579;-70
2022/01/14 05:46:34;;;;;;;54.30;49.10;;;;;;;1.11;88.18;98776.23;109658;1274;22465;-71
2022/01/14 05:49:02;;;;;;;53.10;47.90;;;;;;;1.09;88.06;98771.46;109674;1274;22483;-73
2022/01/14 05:51:30;;;;;;;48.50;43.70;;;;;;;1.09;88.10;98772.45;109582;1274;22502;-72
2022/01/14 05:53:59;;;;;;;48.20;43.50;;;;;;;1.09;88.09;98761.98;109681;1274;22432;-73
2022/01/14 05:56:27;;;;;;;46.90;42.30;;;;;;;1.08;88.04;98765.68;109666;1273;22550;-72
2022/01/14 05:58:55;;;;;;;48.40;43.60;;;;;;;1.07;88.40;98770.29;109665;1274;22463;-72
2022/01/14 06:01:24;;;;;;;45.20;40.90;;;;;;;1.05;88.45;98755.48;109677;1274;23714;-71
2022/01/14 06:03:52;;;;;;;42.80;38.50;;;;;;;1.02;88.26;98756.77;109687;1273;22518;-72
2022/01/14 06:06:20;;;;;;;45.40;41.00;;;;;;;1.00;88.76;98753.77;109679;1274;23222;-72
2022/01/14 06:08:49;;;;;;;42.60;38.30;;;;;;;1.00;88.58;98760.25;109656;1273;22402;-72
2022/01/14 06:11:18;;;;;;;42.90;38.70;;;;;;;1.01;88.64;98757.48;109684;1274;23178;-72
2022/01/14 06:13:46;;;;;;;44.80;40.60;;;;;;;1.01;88.63;98776.63;109676;1274;23158;-71
2022/01/14 06:16:15;;;;;;;45.90;41.10;;;;;;;0.99;88.74;98776.64;109640;1274;22519;-72
2022/01/14 06:18:43;;;;;;;45.50;41.10;;;;;;;0.98;88.91;98776.77;109665;1274;22635;-72
2022/01/14 06:21:12;;;;;;;47.80;43.10;;;;;;;0.99;88.62;98768.46;109671;1274;22552;-71
2022/01/14 06:23:40;;;;;;;53.10;48.00;;;;;;;0.99;88.57;98766.27;109653;1274;22482;-71
2022/01/14 06:26:23;;;;;;;55.30;50.00;;;;;;;0.96;88.73;98774.05;109604;1274;22984;-70
2022/01/14 06:28:51;;;;;;;57.90;52.40;;;;;;;0.98;88.77;98777.77;109685;1274;22420;-69
2022/01/14 06:31:20;;;;;;;63.60;57.20;;;;;;;0.98;88.90;98773.67;109655;1274;22606;-71
2022/01/14 06:33:48;;;;;;;64.60;58.50;;;;;;;0.97;88.92;98784.16;109658;1274;22434;-72
2022/01/14 06:36:16;;;;;;;62.20;56.20;;;;;;;0.95;88.88;98792.75;109574;1274;23103;-73
2022/01/14 06:38:44;;;;;;;48.20;43.70;;;;;;;0.90;88.97;98797.56;109571;1274;22451;-72
2022/01/14 06:41:12;;;;;;;41.50;37.70;;;;;;;0.90;88.84;98796.61;109669;1274;22436;-72
2022/01/14 06:43:40;;;;;;;37.70;33.90;;;;;;;0.88;88.70;98806.06;109672;1273;22239;-73
2022/01/14 06:46:08;;;;;;;36.00;32.30;;;;;;;0.84;88.74;98815.02;109652;1274;22445;-72
2022/01/14 06:48:36;;;;;;;34.10;30.80;;;;;;;0.82;88.72;98812.35;109670;1274;22528;-72
2022/01/14 06:51:04;;;;;;;34.20;30.80;;;;;;;0.80;88.60;98799.65;109646;1274;22547;-72
2022/01/14 06:53:32;;;;;;;37.80;34.00;;;;;;;0.80;88.66;98797.83;109661;1274;22456;-73
2022/01/14 06:56:00;;;;;;;38.30;34.50;;;;;;;0.80;88.67;98782.48;109688;1273;22449;-72
2022/01/14 06:58:28;;;;;;;40.90;36.60;;;;;;;0.79;88.62;98789.75;109656;1274;22458;-72
2022/01/14 07:00:57;;;;;;;37.20;33.50;;;;;;;0.78;88.85;98781.88;109674;1273;22506;-71
2022/01/14 07:03:25;;;;;;;36.80;33.10;;;;;;;0.79;88.64;98771.27;109683;1273;22636;-71
2022/01/14 07:05:54;;;;;;;41.50;37.60;;;;;;;0.82;88.54;98773.35;109683;1273;22527;-70
2022/01/14 07:08:22;;;;;;;49.70;44.80;;;;;;;0.83;88.61;98782.42;109687;1274;22447;-69
2022/01/14 07:10:50;;;;;;;50.10;45.20;;;;;;;0.80;88.96;98784.27;109682;1274;22493;-71
2022/01/14 07:13:18;;;;;;;52.00;47.10;;;;;;;0.79;88.98;98783.91;109675;1274;22493;-71
2022/01/14 07:15:46;;;;;;;56.90;51.40;;;;;;;0.77;89.23;98783.28;109676;1272;22511;-71
2022/01/14 07:18:16;;;;;;;57.20;51.70;;;;;;;0.78;88.99;98770.09;109677;1274;23201;-70
2022/01/14 07:20:44;;;;;;;54.50;49.20;;;;;;;0.78;89.00;98763.67;109650;1273;22462;-71
2022/01/14 07:23:12;;;;;;;59.80;53.90;;;;;;;0.77;89.26;98765.56;109687;1274;22573;-73
2022/01/14 07:25:40;;;;;;;56.30;50.90;;;;;;;0.76;89.50;98765.52;109311;1274;138150;-75
2022/01/14 07:28:09;;;;;;;54.30;49.00;;;;;;;0.74;89.65;98775.09;109674;1274;23363;-71
2022/01/14 07:30:37;;;;;;;50.20;45.20;;;;;;;0.75;89.45;98768.19;109668;1274;22592;-71
2022/01/14 07:33:05;;;;;;;45.60;41.40;;;;;;;0.75;89.38;98770.48;109681;1273;22486;-71
2022/01/14 07:35:33;;;;;;;49.20;44.60;;;;;;;0.76;89.31;98764.79;109695;1273;23226;-73
2022/01/14 07:38:01;;;;;;;45.50;41.10;;;;;;;0.76;89.48;98776.66;109678;1274;22434;-73
2022/01/14 07:40:29;;;;;;;40.00;35.90;;;;;;;0.77;89.24;98753.48;109683;1273;22519;-73
2022/01/14 07:42:58;;;;;;;38.60;34.70;;;;;;;0.78;89.06;98753.75;109677;1272;23601;-72
2022/01/14 07:45:26;;;;;;;37.90;34.30;;;;;;;0.79;89.18;98747.75;109687;1273;22408;-76
2022/01/14 07:47:54;;;;;;;40.30;36.20;;;;;;;0.83;89.21;98750.73;109700;1273;22388;-74
2022/01/14 07:50:28;;;;;;;85.40;41.80;;;;;;;0.86;89.06;98737.14;109750;1274;22528;-74
2022/01/14 07:52:57;;;;;;;39.50;35.70;;;;;;;0.89;89.14;98748.83;109648;1273;22543;-74
2022/01/14 07:55:31;;;;;;;38.20;34.50;;;;;;;0.90;89.08;98757.34;109500;1274;137748;-74
2022/01/14 07:58:01;;;;;;;36.80;33.20;;;;;;;0.92;88.96;98762.29;109661;1274;22430;-74
2022/01/14 08:00:29;;;;;;;37.50;33.90;;;;;;;0.92;88.99;98762.48;109644;1274;23383;-73
2022/01/14 08:02:58;;;;;;;38.50;34.80;;;;;;;0.93;89.09;98765.66;109676;1273;22553;-73
2022/01/14 08:05:27;;;;;;;37.80;34.20;;;;;;;0.97;89.06;98762.01;109585;1274;23054;-75
2022/01/14 08:08:03;;;;;;;33.10;29.90;;;;;;;0.98;88.83;98752.98;109668;1274;23077;-75
2022/01/14 08:10:32;;;;;;;35.10;31.50;;;;;;;0.98;89.24;98751.33;109614;1274;22557;-73
2022/01/14 08:13:01;;;;;;;40.80;36.90;;;;;;;1.01;89.03;98748.17;109661;1274;22485;-71
2022/01/14 08:15:31;;;;;;;37.70;34.10;;;;;;;1.03;89.02;98754.68;109665;1274;22430;-72
2022/01/14 08:18:01;;;;;;;40.80;36.80;;;;;;;1.04;88.90;98739.13;109667;1274;22455;-73
2022/01/14 08:20:29;;;;;;;38.00;34.40;;;;;;;1.04;89.05;98727.13;109594;1274;22479;-73
2022/01/14 08:23:01;;;;;;;43.20;39.00;;;;;;;1.06;88.94;98720.61;109658;1274;23326;-74
2022/01/14 08:25:33;;;;;;;;;;;;;;;1.07;88.81;98718.52;109683;1274;22836;-73
2022/01/14 08:28:02;;;;;;;49.40;44.90;;;;;;;1.05;88.97;98716.78;109643;1273;23179;-73
2022/01/14 08:30:32;;;;;;;52.20;47.30;;;;;;;1.04;88.88;98712.59;109660;1273;22567;-74
2022/01/14 08:33:00;;;;;;;53.70;48.70;;;;;;;1.04;88.94;98715.96;109675;1273;23313;-74
2022/01/14 08:35:29;;;;;;;54.80;49.50;;;;;;;1.03;88.98;98709.12;109655;1274;23676;-74
2022/01/14 08:37:57;;;;;;;55.80;50.40;;;;;;;1.02;88.95;98709.48;109660;1273;22233;-74
2022/01/14 08:40:25;;;;;;;57.70;52.30;;;;;;;0.99;89.13;98706.41;109677;1274;22475;-74
2022/01/14 08:42:55;;;;;;;61.90;55.80;;;;;;;0.97;89.08;98702.27;109677;1274;22537;-73
2022/01/14 08:45:23;;;;;;;60.80;55.00;;;;;;;0.96;89.06;98699.79;109654;1273;22458;-73
2022/01/14 08:47:52;;;;;;;59.00;53.10;;;;;;;0.95;89.34;98690.31;109655;1273;22377;-74
2022/01/14 08:50:27;;;;;;;61.70;55.70;;;;;;;0.93;89.49;98685.80;109670;1272;22463;-74
2022/01/14 08:52:59;;;;;;;67.80;61.00;;;;;;;0.93;89.41;98677.19;109633;1273;22646;-74
2022/01/14 08:55:29;;;;;;;62.20;55.70;;;;;;;0.92;89.39;98679.61;109662;1273;22542;-74
2022/01/14 08:57:57;;;;;;;54.10;48.60;;;;;;;0.89;89.59;98675.59;109674;1273;23619;-74
2022/01/14 09:00:26;;;;;;;52.40;46.90;;;;;;;0.92;89.75;98686.77;109673;1274;22484;-74
2022/01/14 09:02:56;;;;;;;50.60;45.60;;;;;;;0.96;89.51;98697.17;109590;1274;22425;-74
2022/01/14 09:05:25;;;;;;;56.30;50.50;;;;;;;0.97;89.46;98694.39;109561;1274;138394;-73
2022/01/14 09:07:54;;;;;;;54.60;49.00;;;;;;;0.96;89.75;98693.58;109645;1273;22417;-75
2022/01/14 09:10:22;;;;;;;50.60;45.70;;;;;;;0.94;89.64;98693.67;109671;1274;23322;-72
2022/01/14 09:12:51;;;;;;;46.80;42.00;;;;;;;0.94;89.58;98685.55;109671;1273;22449;-73
2022/01/14 09:15:20;;;;;;;48.10;43.20;;;;;;;0.95;89.79;98687.66;109663;1274;22390;-74
2022/01/14 09:17:48;;;;;;;44.00;39.80;;;;;;;0.98;89.92;98687.45;109655;1273;22488;-74
2022/01/14 09:20:16;;;;;;;44.50;40.30;;;;;;;1.00;89.84;98684.48;109681;1273;22632;-73
2022/01/14 09:22:51;;;;;;;43.40;39.20;;;;;;;0.98;90.32;98687.80;109645;1274;22565;-73
2022/01/14 09:25:19;;;;;;;40.30;36.40;;;;;;;0.99;90.33;98685.75;109578;1273;22464;-73
2022/01/14 09:27:50;;;;;;;42.70;38.30;;;;;;;1.00;90.25;98676.48;109658;1273;22426;-73
2022/01/14 09:30:20;;;;;;;41.50;37.50;;;;;;;1.02;90.25;98670.41;109593;1273;22239;-72
2022/01/14 09:32:49;;;;;;;47.10;42.60;;;;;;;1.04;90.30;98675.52;109566;1273;23730;-72
2022/01/14 09:35:17;;;;;;;48.20;43.60;;;;;;;1.06;90.44;98676.95;109654;1274;22445;-73
2022/01/14 09:37:45;;;;;;;40.80;36.70;;;;;;;1.08;90.29;98675.48;109668;1273;22541;-72
2022/01/14 09:40:20;;;;;;;47.90;43.20;;;;;;;1.09;90.53;98671.17;109659;1273;22439;-73
2022/01/14 09:43:01;;;;;;;41.20;37.30;;;;;;;1.13;90.25;98678.77;109541;1273;138749;-75
2022/01/14 09:45:53;;;;;;;45.30;41.10;;;;;;;1.14;90.41;98669.36;109646;1274;22405;-75
2022/01/14 09:48:21;;;;;;;35.20;32.10;;;;;;;1.15;90.36;98662.95;109503;1274;23125;-75
2022/01/14 09:50:51;;;;;;;36.70;33.10;;;;;;;1.16;91.06;98664.63;109571;1274;22495;-73
2022/01/14 09:53:19;;;;;;;34.40;31.10;;;;;;;1.20;90.59;98666.38;109663;1273;22260;-73
2022/01/14 09:55:47;;;;;;;32.70;29.60;;;;;;;1.23;90.81;98654.59;109662;1273;22256;-72
2022/01/14 09:58:16;;;;;;;36.70;33.40;;;;;;;1.27;90.55;98648.63;109657;1274;22418;-74
2022/01/14 10:00:44;;;;;;;34.10;30.70;;;;;;;1.29;90.51;98652.81;109653;1274;23039;-75
2022/01/14 10:03:24;;;;;;;34.00;30.80;;;;;;;1.28;90.74;98651.25;109673;1274;23227;-73
2022/01/14 10:05:56;;;;;;;32.70;29.60;;;;;;;1.30;90.68;98661.98;109670;1274;22579;-78
2022/01/14 10:08:27;;;;;;;32.00;29.10;;;;;;;1.33;90.67;98657.55;109679;1273;22514;-72
2022/01/14 10:10:59;;;;;;;34.10;30.90;;;;;;;1.33;90.85;98655.58;109654;1273;22537;-74
2022/01/14 10:13:30;;;;;;;36.40;33.00;;;;;;;1.30;90.66;98651.48;109642;1273;22516;-73
2022/01/14 10:16:07;;;;;;;36.60;33.10;;;;;;;1.32;90.52;98644.04;109535;1274;138423;-73
2022/01/14 10:18:36;;;;;;;41.70;37.40;;;;;;;1.34;90.45;98642.77;109652;1274;22559;-71
2022/01/14 10:21:06;;;;;;;44.10;39.80;;;;;;;1.36;90.35;98634.44;109644;1274;22465;-73
2022/01/14 10:23:48;;;;;;;49.20;44.70;;;;;;;1.38;90.24;98631.56;109664;1274;22505;-73
2022/01/14 10:26:17;;;;;;;46.90;42.50;;;;;;;1.35;90.30;98625.98;109652;1274;22532;-72
2022/01/14 10:29:03;;;;;;;46.20;41.30;;;;;;;1.35;90.30;98627.38;109634;1273;22515;-71
2022/01/14 10:31:33;;;;;;;39.40;35.30;;;;;;;1.38;90.11;98608.48;109665;1273;23277;-75
2022/01/14 10:34:11;;;;;;;39.30;35.70;;;;;;;1.42;90.12;98598.95;109567;1274;23207;-73
2022/01/14 10:36:44;;;;;;;43.20;38.90;;;;;;;1.44;90.03;98594.77;109649;1272;22533;-72
2022/01/14 10:39:19;;;;;;;47.00;42.50;;;;;;;1.44;90.01;98596.52;109642;1273;22435;-74
2022/01/14 10:41:55;;;;;;;39.70;36.00;;;;;;;1.42;90.15;98586.98;109674;1273;22345;-72
2022/01/14 10:44:31;;;;;;;41.40;37.70;;;;;;;1.44;90.01;98597.21;109654;1272;22473;-74
2022/01/14 10:47:18;;;;;;;45.50;41.10;;;;;;;1.47;90.00;98580.84;109619;1273;22573;-72
2022/01/14 10:49:50;;;;;;;48.20;43.40;;;;;;;1.47;90.11;98577.24;109655;1274;22552;-72
2022/01/14 10:52:22;;;;;;;46.80;41.90;;;;;;;1.50;90.02;98576.05;109651;1274;23040;-74
2022/01/14 10:54:53;;;;;;;42.60;38.40;;;;;;;1.51;89.97;98578.41;109646;1273;22506;-73
2022/01/14 10:57:23;;;;;;;37.50;33.80;;;;;;;1.52;89.95;98562.34;109668;1274;22386;-72
2022/01/14 10:59:58;;;;;;;40.10;36.10;;;;;;;1.52;89.89;98560.83;109662;1273;23080;-73
2022/01/14 11:02:53;;;;;;;39.60;35.70;;;;;;;1.55;89.89;98554.55;109636;1274;23279;-73
2022/01/14 11:05:24;;;;;;;39.40;35.50;;;;;;;1.57;89.75;98545.90;109437;1275;138629;-75
2022/01/14 11:07:52;;;;;;;40.30;36.40;;;;;;;1.58;89.74;98536.36;109550;1274;22443;-73
2022/01/14 11:10:28;;;;;;;41.80;37.80;;;;;;;1.57;89.81;98534.20;109641;1273;23151;-73
2022/01/14 11:12:58;;;;;;;45.40;41.10;;;;;;;1.58;89.63;98540.45;109648;1272;22538;-74
2022/01/14 11:15:28;;;;;;;47.00;42.70;;;;;;;1.58;89.69;98533.45;109644;1274;22545;-73
2022/01/14 11:17:59;;;;;;;46.70;42.30;;;;;;;1.58;89.64;98528.48;109641;1273;22412;-73
2022/01/14 11:20:37;;;;;;;52.70;47.10;;;;;;;1.58;89.64;98518.74;109667;1274;22471;-74
2022/01/14 11:23:14;;;;;;;52.20;47.10;;;;;;;1.60;89.54;98524.45;109645;1273;23269;-74
2022/01/14 11:25:58;;;;;;;55.30;50.00;;;;;;;1.60;89.67;98519.16;109644;1273;23263;-75
2022/01/14 11:28:30;;;;;;;48.80;44.00;;;;;;;1.64;89.53;98518.18;109660;1273;23164;-75
2022/01/14 11:30:59;;;;;;;51.60;46.80;;;;;;;1.68;89.47;98531.65;109657;1274;23175;-74
2022/01/14 11:33:42;;;;;;;51.30;46.40;;;;;;;1.69;89.39;98521.14;109666;1273;22311;-73
2022/01/14 11:36:10;;;;;;;56.30;50.50;;;;;;;1.66;89.43;98518.84;109648;1274;23085;-73
2022/01/14 11:38:44;;;;;;;53.10;47.80;;;;;;;1.67;89.31;98523.48;109673;1273;22432;-72
2022/01/14 11:41:16;;;;;;;63.10;56.70;;;;;;;1.69;89.09;98523.48;109637;1274;23199;-74
2022/01/14 11:43:54;;;;;;;86.00;74.90;;;;;;;1.72;89.31;98516.27;109642;1274;22455;-73
2022/01/14 11:46:32;;;;;;;106.60;86.20;;;;;;;1.73;89.05;98503.38;109639;1274;22256;-74
2022/01/14 11:49:01;;;;;;;64.30;58.20;;;;;;;1.73;89.10;98496.26;109676;1273;22366;-73
2022/01/14 11:51:32;;;;;;;62.10;56.30;;;;;;;1.75;89.07;98505.20;109672;1272;23188;-74
2022/01/14 11:54:05;;;;;;;63.80;57.90;;;;;;;1.76;88.81;98510.07;109646;1274;22477;-73
2022/01/14 11:56:35;;;;;;;58.20;52.40;;;;;;;1.76;88.61;98498.80;109654;1273;22437;-73
2022/01/14 11:59:22;;;;;;;53.00;47.80;;;;;;;1.78;88.74;98495.98;109640;1274;23784;-73